createdAt,value
2023-02-16T00:00:20.644Z,23.80
2023-02-16T00:02:48.701Z,24.25
2023-02-16T00:05:34.217Z,21.98
2023-02-16T00:08:02.118Z,25.35
2023-02-16T00:10:35.455Z,23.90
2023-02-16T00:13:30.239Z,22.75
2023-02-16T00:15:57.675Z,24.55
2023-02-16T00:18:25.009Z,24.20
2023-02-16T00:20:52.376Z,22.65
2023-02-16T00:23:19.737Z,24.40
2023-02-16T00:25:47.246Z,23.58
2023-02-16T00:28:20.570Z,23.98
2023-02-16T00:30:50.158Z,23.02
2023-02-16T00:33:20.875Z,24.02
2023-02-16T00:35:48.839Z,24.23
2023-02-16T00:38:17.025Z,23.90
2023-02-16T00:40:44.560Z,23.63
2023-02-16T00:43:27.895Z,24.42
2023-02-16T00:45:56.430Z,24.73
2023-02-16T00:48:25.006Z,23.70
2023-02-16T00:50:53.979Z,24.33
2023-02-16T00:53:21.287Z,23.33
2023-02-16T00:55:48.657Z,22.92
2023-02-16T00:58:18.729Z,22.88
2023-02-16T01:01:16.619Z,23.70
2023-02-16T01:03:47.085Z,22.17
2023-02-16T01:06:32.668Z,22.40
2023-02-16T01:09:30.669Z,23.83
2023-02-16T01:11:58.518Z,22.33
2023-02-16T01:14:26.413Z,24.52
2023-02-16T01:16:53.812Z,22.73
2023-02-16T01:19:21.213Z,22.27
2023-02-16T01:21:48.622Z,21.73
2023-02-16T01:24:16.229Z,22.70
2023-02-16T01:26:48.553Z,21.90
2023-02-16T01:29:18.414Z,21.73
2023-02-16T01:31:46.362Z,23.63
2023-02-16T01:34:14.379Z,22.23
2023-02-16T01:36:46.795Z,22.02
2023-02-16T01:39:18.865Z,23.30
2023-02-16T01:42:13.119Z,23.70
2023-02-16T01:44:49.690Z,22.35
2023-02-16T01:47:35.581Z,22.98
2023-02-16T01:50:19.453Z,22.45
2023-02-16T01:53:15.951Z,23.27
2023-02-16T01:55:46.972Z,22.33
2023-02-16T01:58:40.929Z,22.10
2023-02-16T02:01:35.683Z,23.80
2023-02-16T02:04:34.821Z,22.70
2023-02-16T02:07:02.116Z,23.48
2023-02-16T02:09:40.566Z,24.05
2023-02-16T02:12:29.884Z,22.95
2023-02-16T02:14:57.320Z,23.30
2023-02-16T02:17:25.693Z,24.23
2023-02-16T02:19:56.017Z,25.10
2023-02-16T02:23:30.380Z,23.85
2023-02-16T02:26:16.158Z,23.38
2023-02-16T02:28:54.938Z,24.13
2023-02-16T02:31:41.697Z,23.77
2023-02-16T02:34:15.067Z,23.67
2023-02-16T02:36:50.715Z,24.88
2023-02-16T02:39:27.501Z,24.45
2023-02-16T02:42:05.865Z,23.95
2023-02-16T02:44:49.081Z,24.08
2023-02-16T02:47:16.779Z,23.42
2023-02-16T02:49:54.842Z,24.45
2023-02-16T02:52:22.692Z,25.35
2023-02-16T02:55:09.381Z,23.98
2023-02-16T02:58:06.412Z,23.67
2023-02-16T03:00:41.880Z,23.00
2023-02-16T03:03:15.588Z,24.67
2023-02-16T03:05:47.964Z,25.05
2023-02-16T03:08:18.862Z,25.60
2023-02-16T03:11:09.194Z,24.65
2023-02-16T03:13:39.710Z,25.10
2023-02-16T03:16:21.642Z,24.95
2023-02-16T03:19:07.434Z,25.38
2023-02-16T03:21:54.094Z,26.42
2023-02-16T03:24:46.123Z,24.95
2023-02-16T03:27:40.085Z,25.45
2023-02-16T03:30:10.095Z,26.10
2023-02-16T03:32:39.008Z,25.77
2023-02-16T03:35:07.041Z,26.38
2023-02-16T03:37:34.841Z,26.52
2023-02-16T03:40:21.123Z,24.63
2023-02-16T03:42:50.204Z,25.05
2023-02-16T03:45:21.203Z,25.92
2023-02-16T03:47:48.479Z,24.92
2023-02-16T03:50:16.132Z,25.65
2023-02-16T03:52:43.567Z,25.95
2023-02-16T03:55:10.888Z,25.15
2023-02-16T03:57:38.132Z,25.10
2023-02-16T04:00:06.039Z,26.08
2023-02-16T04:02:40.388Z,26.10
2023-02-16T04:05:07.871Z,26.17
2023-02-16T04:07:35.159Z,26.30
2023-02-16T04:10:02.469Z,26.00
2023-02-16T04:12:38.636Z,25.98
2023-02-16T04:15:12.750Z,26.80
2023-02-16T04:17:40.683Z,25.90
2023-02-16T04:20:11.124Z,25.23
2023-02-16T04:22:38.539Z,24.98
2023-02-16T04:25:06.445Z,24.10
2023-02-16T04:27:33.927Z,25.88
2023-02-16T04:30:01.331Z,24.85
2023-02-16T04:32:28.641Z,26.20
2023-02-16T04:34:55.911Z,25.90
2023-02-16T04:37:23.228Z,24.95
2023-02-16T04:39:50.540Z,26.10
2023-02-16T04:42:17.862Z,25.05
2023-02-16T04:44:45.298Z,25.38
2023-02-16T04:47:12.578Z,25.13
2023-02-16T04:49:39.853Z,23.98
2023-02-16T04:52:07.195Z,24.65
2023-02-16T04:54:34.514Z,25.05
2023-02-16T04:57:01.877Z,24.48
2023-02-16T04:59:29.189Z,25.20
2023-02-16T05:01:57.399Z,24.60
2023-02-16T05:04:26.431Z,23.20
2023-02-16T05:06:53.732Z,24.20
2023-02-16T05:09:21.022Z,23.75
2023-02-16T05:12:06.735Z,24.17
2023-02-16T05:14:41.906Z,24.42
2023-02-16T05:17:14.830Z,24.30
2023-02-16T05:19:43.897Z,24.20
2023-02-16T05:22:11.579Z,25.58
2023-02-16T05:24:39.174Z,25.13
2023-02-16T05:27:11.173Z,25.77
2023-02-16T05:29:38.482Z,25.30
2023-02-16T05:32:06.352Z,25.52
2023-02-16T05:34:33.651Z,26.20
2023-02-16T05:37:01.091Z,25.23
2023-02-16T05:39:28.610Z,25.58
2023-02-16T05:41:55.938Z,24.75
2023-02-16T05:44:23.360Z,26.20
2023-02-16T05:46:50.710Z,24.95
2023-02-16T05:49:18.174Z,23.80
2023-02-16T05:51:45.649Z,24.98
2023-02-16T05:54:17.442Z,24.85
2023-02-16T05:56:50.091Z,24.63
2023-02-16T05:59:17.594Z,23.30
2023-02-16T06:01:50.513Z,24.10
2023-02-16T06:04:19.768Z,24.65
2023-02-16T06:06:47.373Z,24.40
2023-02-16T06:09:14.935Z,24.35
2023-02-16T06:11:43.032Z,24.05
2023-02-16T06:14:18.464Z,23.95
2023-02-16T06:16:48.158Z,22.40
2023-02-16T06:19:17.144Z,25.42
2023-02-16T06:21:44.805Z,23.55
2023-02-16T06:24:13.358Z,24.95
2023-02-16T06:26:41.677Z,24.17
2023-02-16T06:29:09.773Z,25.23
2023-02-16T06:31:37.509Z,24.23
2023-02-16T06:34:05.680Z,24.30
2023-02-16T06:36:33.954Z,23.30
2023-02-16T06:39:01.350Z,24.95
2023-02-16T06:41:32.001Z,24.70
2023-02-16T06:44:00.656Z,24.77
2023-02-16T06:46:28.419Z,24.13
2023-02-16T06:48:56.061Z,23.23
2023-02-16T06:51:23.770Z,23.48
2023-02-16T06:53:51.421Z,23.38
2023-02-16T06:56:18.840Z,24.58
2023-02-16T06:58:46.037Z,23.33
2023-02-16T07:01:13.499Z,23.52
2023-02-16T07:03:41.059Z,21.17
2023-02-16T07:06:08.435Z,23.27
2023-02-16T07:08:36.037Z,22.75
2023-02-16T07:11:04.184Z,22.60
2023-02-16T07:13:31.778Z,23.23
2023-02-16T07:15:59.212Z,21.75
2023-02-16T07:18:26.584Z,22.30
2023-02-16T07:20:54.159Z,22.65
2023-02-16T07:23:21.596Z,22.30
2023-02-16T07:25:48.881Z,22.42
2023-02-16T07:28:16.518Z,22.90
2023-02-16T07:30:44.391Z,22.00
2023-02-16T07:33:11.641Z,22.52
2023-02-16T07:35:38.926Z,20.83
2023-02-16T07:38:06.703Z,21.42
2023-02-16T07:40:34.271Z,21.55
2023-02-16T07:43:04.006Z,21.67
2023-02-16T07:45:35.039Z,21.88
2023-02-16T07:48:02.924Z,21.08
2023-02-16T07:50:30.134Z,22.13
2023-02-16T07:52:57.405Z,21.77
2023-02-16T07:55:24.708Z,21.42
2023-02-16T07:57:55.347Z,21.23
2023-02-16T08:00:23.065Z,19.60
2023-02-16T08:02:50.436Z,19.70
2023-02-16T08:05:18.196Z,20.80
2023-02-16T08:07:46.708Z,19.92
2023-02-16T08:10:15.594Z,20.55
2023-02-16T08:12:43.382Z,19.42
2023-02-16T08:15:12.010Z,21.45
2023-02-16T08:17:39.537Z,18.88
2023-02-16T08:20:07.894Z,20.02
2023-02-16T08:22:35.918Z,19.88
2023-02-16T08:25:06.880Z,19.75
2023-02-16T08:27:35.712Z,19.80
2023-02-16T08:30:03.684Z,19.23
2023-02-16T08:32:31.178Z,19.15
2023-02-16T08:34:58.577Z,18.08
2023-02-16T08:37:26.137Z,18.17
2023-02-16T08:39:53.785Z,17.50
2023-02-16T08:42:21.287Z,18.80
2023-02-16T08:44:48.684Z,17.30
2023-02-16T08:47:18.346Z,18.45
2023-02-16T08:49:46.010Z,17.80
2023-02-16T08:52:13.883Z,18.20
2023-02-16T08:54:41.472Z,18.67
2023-02-16T08:57:09.321Z,19.75
2023-02-16T08:59:36.893Z,17.95
2023-02-16T09:02:04.703Z,18.75
2023-02-16T09:04:32.250Z,16.85
2023-02-16T09:06:59.989Z,17.55
2023-02-16T09:09:27.801Z,19.13
2023-02-16T09:11:55.314Z,17.00
2023-02-16T09:14:23.317Z,18.60
2023-02-16T09:16:51.314Z,18.35
2023-02-16T09:19:21.047Z,19.42
2023-02-16T09:21:50.606Z,17.17
2023-02-16T09:24:18.090Z,17.63
2023-02-16T09:26:45.650Z,18.80
2023-02-16T09:29:13.869Z,18.98
2023-02-16T09:31:42.472Z,18.65
2023-02-16T09:34:22.136Z,18.60
2023-02-16T09:36:50.533Z,18.85
2023-02-16T09:39:18.673Z,17.77
2023-02-16T09:42:04.937Z,17.98
2023-02-16T09:44:50.910Z,17.58
2023-02-16T09:47:24.079Z,19.58
2023-02-16T09:49:53.961Z,18.50
2023-02-16T09:52:36.009Z,17.67
2023-02-16T09:55:17.084Z,18.00
2023-02-16T09:57:55.971Z,19.05
2023-02-16T10:00:33.363Z,19.10
2023-02-16T10:03:20.864Z,19.33
2023-02-16T10:06:14.592Z,18.85
2023-02-16T10:08:46.873Z,19.27
2023-02-16T10:11:41.889Z,19.33
2023-02-16T10:14:30.995Z,19.15
2023-02-16T10:17:11.239Z,19.73
2023-02-16T10:19:48.909Z,19.77
2023-02-16T10:22:24.315Z,18.83
2023-02-16T10:25:14.567Z,19.65
2023-02-16T10:27:45.730Z,19.15
2023-02-16T10:30:19.101Z,20.23
2023-02-16T10:33:10.563Z,20.17
2023-02-16T10:35:49.169Z,19.95
2023-02-16T10:38:24.491Z,19.88
2023-02-16T10:41:00.836Z,20.17
2023-02-16T10:43:53.071Z,19.65
2023-02-16T10:46:26.542Z,21.58
2023-02-16T10:48:55.064Z,18.88
2023-02-16T10:51:28.189Z,18.33
2023-02-16T10:54:01.832Z,18.67
2023-02-16T10:56:49.680Z,18.85
2023-02-16T10:59:38.073Z,17.70
2023-02-16T11:02:41.666Z,17.83
2023-02-16T11:05:31.200Z,18.55
2023-02-16T11:08:03.306Z,17.98
2023-02-16T11:10:38.902Z,17.17
2023-02-16T11:13:07.919Z,17.25
2023-02-16T11:15:38.830Z,17.45
2023-02-16T11:18:36.281Z,17.40
2023-02-16T11:21:04.656Z,18.17
2023-02-16T11:23:40.973Z,17.90
2023-02-16T11:26:24.116Z,17.65
2023-02-16T11:28:51.923Z,16.95
2023-02-16T11:31:32.822Z,17.48
2023-02-16T11:34:27.844Z,18.17
2023-02-16T11:37:14.255Z,18.50
2023-02-16T11:39:49.584Z,20.08
2023-02-16T11:42:34.875Z,18.35
2023-02-16T11:45:04.913Z,19.05
2023-02-16T11:47:38.590Z,19.70
2023-02-16T11:50:20.828Z,19.67
2023-02-16T11:52:50.616Z,17.88
2023-02-16T11:55:34.182Z,19.00
2023-02-16T11:58:27.525Z,18.63
2023-02-16T12:01:12.985Z,18.58
2023-02-16T12:04:05.599Z,19.23
2023-02-16T12:06:48.001Z,17.95
2023-02-16T12:09:36.759Z,17.02
2023-02-16T12:12:20.974Z,17.30
2023-02-16T12:14:57.472Z,19.30
2023-02-16T12:17:49.336Z,17.38
2023-02-16T12:20:58.923Z,16.25
2023-02-16T12:23:44.951Z,17.63
2023-02-16T12:26:34.395Z,18.38
2023-02-16T12:29:21.062Z,19.05
2023-02-16T12:32:00.853Z,18.05
2023-02-16T12:34:54.028Z,20.13
2023-02-16T12:37:26.811Z,18.92
2023-02-16T12:40:28.783Z,18.90
2023-02-16T12:43:27.726Z,18.63
2023-02-16T12:45:57.939Z,19.08
2023-02-16T12:48:51.268Z,18.48
2023-02-16T12:51:29.342Z,18.80
2023-02-16T12:54:10.719Z,18.00
2023-02-16T12:57:06.255Z,18.80
2023-02-16T12:59:48.722Z,18.45
2023-02-16T13:02:42.509Z,19.98
2023-02-16T13:05:12.050Z,18.90
2023-02-16T13:07:43.016Z,19.58
2023-02-16T13:10:36.016Z,18.48
2023-02-16T13:13:11.935Z,17.90
2023-02-16T13:15:40.533Z,18.90
2023-02-16T13:18:24.352Z,19.05
2023-02-16T13:21:10.913Z,19.02
2023-02-16T13:23:50.582Z,18.48
2023-02-16T13:26:31.141Z,20.45
2023-02-16T13:29:36.057Z,18.30
2023-02-16T13:32:33.209Z,19.23
2023-02-16T13:35:35.005Z,20.27
2023-02-16T13:38:37.405Z,19.77
2023-02-16T13:41:29.506Z,21.95
2023-02-16T13:44:18.510Z,20.52
2023-02-16T13:46:52.426Z,21.17
2023-02-16T13:49:42.876Z,20.05
2023-02-16T13:52:27.444Z,18.98
2023-02-16T13:54:54.978Z,19.98
2023-02-16T13:57:51.456Z,19.17
2023-02-16T14:00:35.494Z,19.30
2023-02-16T14:03:05.692Z,19.42
2023-02-16T14:05:36.553Z,18.92
2023-02-16T14:08:16.735Z,19.13
2023-02-16T14:10:53.422Z,18.70
2023-02-16T14:13:29.168Z,18.30
2023-02-16T14:16:02.023Z,18.98
2023-02-16T14:18:46.906Z,18.45
2023-02-16T14:21:42.814Z,18.52
2023-02-16T14:24:25.089Z,18.90
2023-02-16T14:27:01.338Z,18.13
2023-02-16T14:29:51.805Z,18.20
2023-02-16T14:32:19.042Z,18.92
2023-02-16T14:35:03.558Z,19.83
2023-02-16T14:37:36.681Z,18.40
2023-02-16T14:40:39.903Z,19.52
2023-02-16T14:43:30.709Z,17.88
2023-02-16T14:46:29.145Z,17.48
2023-02-16T14:49:30.589Z,18.48
2023-02-16T14:52:12.983Z,18.05
2023-02-16T14:55:07.521Z,18.58
2023-02-16T14:57:57.619Z,18.30
2023-02-16T15:00:46.508Z,17.27
2023-02-16T15:03:18.752Z,18.50
2023-02-16T15:05:56.191Z,16.80
2023-02-16T15:08:34.701Z,19.30
2023-02-16T15:11:20.678Z,19.10
2023-02-16T15:13:52.432Z,18.50
2023-02-16T15:16:22.688Z,18.70
2023-02-16T15:18:53.567Z,18.15
2023-02-16T15:21:30.708Z,18.42
2023-02-16T15:24:00.570Z,18.38
2023-02-16T15:26:33.756Z,18.13
2023-02-16T15:29:16.561Z,18.52
2023-02-16T15:31:44.223Z,17.35
2023-02-16T15:34:15.142Z,18.02
2023-02-16T15:36:44.619Z,17.10
2023-02-16T15:39:38.518Z,16.00
2023-02-16T15:42:29.593Z,17.08
2023-02-16T15:44:57.009Z,16.48
2023-02-16T15:47:26.407Z,16.60
2023-02-16T15:49:54.999Z,15.63
2023-02-16T15:52:37.808Z,15.73
2023-02-16T15:55:09.107Z,13.77
2023-02-16T15:57:38.332Z,13.73
2023-02-16T16:00:20.946Z,14.07
2023-02-16T16:02:54.460Z,14.32
2023-02-16T16:05:25.073Z,13.15
2023-02-16T16:07:53.649Z,12.85
2023-02-16T16:10:40.970Z,11.70
2023-02-16T16:13:29.741Z,13.02
2023-02-16T16:16:04.549Z,13.52
2023-02-16T16:18:39.517Z,12.57
2023-02-16T16:24:04.239Z,12.95
2023-02-16T16:26:49.435Z,11.43
2023-02-16T16:29:41.274Z,11.50
2023-02-16T16:32:20.107Z,11.60
2023-02-16T16:34:48.136Z,11.38
2023-02-16T16:37:36.720Z,11.15
2023-02-16T16:40:19.746Z,11.25
2023-02-16T16:43:02.462Z,10.93
2023-02-16T16:45:40.798Z,12.48
2023-02-16T16:48:13.862Z,11.30
2023-02-16T16:50:42.379Z,10.63
2023-02-16T16:53:31.647Z,11.25
2023-02-16T16:56:01.203Z,11.98
2023-02-16T16:58:29.363Z,10.68
2023-02-16T17:00:56.636Z,10.80
2023-02-16T17:03:24.041Z,10.70
2023-02-16T17:05:51.429Z,10.98
2023-02-16T17:08:18.751Z,10.38
2023-02-16T17:10:46.115Z,10.50
2023-02-16T17:13:17.956Z,9.93
2023-02-16T17:15:56.788Z,10.98
2023-02-16T17:18:24.053Z,10.75
2023-02-16T17:20:51.577Z,10.18
2023-02-16T17:23:21.597Z,10.18
2023-02-16T17:25:49.626Z,11.30
2023-02-16T17:28:18.393Z,9.40
2023-02-16T17:30:45.756Z,9.90
2023-02-16T17:33:13.037Z,9.95
2023-02-16T17:35:42.264Z,9.90
2023-02-16T17:38:27.859Z,9.52
2023-02-16T17:40:56.740Z,10.40
2023-02-16T17:43:26.941Z,9.48
2023-02-16T17:45:56.677Z,9.20
2023-02-16T17:48:29.254Z,9.52
2023-02-16T17:50:59.745Z,9.65
2023-02-16T17:53:28.135Z,10.60
2023-02-16T17:55:57.706Z,10.05
2023-02-16T17:58:25.959Z,9.63
2023-02-16T18:00:53.452Z,10.60
2023-02-16T18:03:22.992Z,9.82
2023-02-16T18:05:50.766Z,10.05
2023-02-16T18:08:18.266Z,9.88
2023-02-16T18:10:48.528Z,9.82
2023-02-16T18:13:16.534Z,9.85
2023-02-16T18:15:47.381Z,9.25
2023-02-16T18:18:16.439Z,9.18
2023-02-16T18:20:44.489Z,9.77
2023-02-16T18:23:11.919Z,8.55
2023-02-16T18:25:41.391Z,9.18
2023-02-16T18:28:20.077Z,9.02
2023-02-16T18:30:49.152Z,9.70
2023-02-16T18:33:17.552Z,9.93
2023-02-16T18:35:44.837Z,8.93
2023-02-16T18:38:13.437Z,8.95
2023-02-16T18:40:45.318Z,9.45
2023-02-16T18:43:13.143Z,10.70
2023-02-16T18:45:41.699Z,9.25
2023-02-16T18:48:09.125Z,10.43
2023-02-16T18:50:36.437Z,9.82
2023-02-16T18:53:04.126Z,9.85
2023-02-16T18:55:33.000Z,9.85
2023-02-16T18:58:01.647Z,10.00
2023-02-16T19:00:29.511Z,10.10
2023-02-16T19:02:57.001Z,10.27
2023-02-16T19:05:24.992Z,9.60
2023-02-16T19:07:52.385Z,10.30
2023-02-16T19:10:19.738Z,10.07
2023-02-16T19:12:47.017Z,10.88
2023-02-16T19:15:14.316Z,9.38
2023-02-16T19:17:41.757Z,10.38
2023-02-16T19:20:11.593Z,9.93
2023-02-16T19:22:38.847Z,10.82
2023-02-16T19:25:07.064Z,11.10
2023-02-16T19:27:34.562Z,11.05
2023-02-16T19:30:01.911Z,10.65
2023-02-16T19:32:29.556Z,10.40
2023-02-16T19:34:56.980Z,11.02
2023-02-16T19:37:24.313Z,10.73
2023-02-16T19:39:51.756Z,10.50
2023-02-16T19:42:19.879Z,10.52
2023-02-16T19:44:47.140Z,11.57
2023-02-16T19:47:14.427Z,10.90
2023-02-16T19:49:42.557Z,11.20
2023-02-16T19:52:09.991Z,10.63
2023-02-16T19:54:37.356Z,10.30
2023-02-16T19:57:05.219Z,12.02
2023-02-16T19:59:32.810Z,11.45
2023-02-16T20:02:00.410Z,11.30
2023-02-16T20:04:28.175Z,11.52
2023-02-16T20:06:56.444Z,12.85
2023-02-16T20:09:24.683Z,12.68
2023-02-16T20:11:52.361Z,12.05
2023-02-16T20:14:19.677Z,11.38
2023-02-16T20:16:49.442Z,12.07
2023-02-16T20:19:16.824Z,12.13
2023-02-16T20:21:46.235Z,12.25
2023-02-16T20:24:14.857Z,11.25
2023-02-16T20:26:45.041Z,12.50
2023-02-16T20:29:14.900Z,13.57
2023-02-16T20:31:52.421Z,12.73
2023-02-16T20:34:20.352Z,12.35
2023-02-16T20:36:47.936Z,12.35
2023-02-16T20:39:15.623Z,12.25
2023-02-16T20:41:43.699Z,12.93
2023-02-16T20:44:12.116Z,14.90
2023-02-16T20:46:40.615Z,13.95
2023-02-16T20:49:09.084Z,13.15
2023-02-16T20:51:37.116Z,12.82
2023-02-16T20:54:05.430Z,12.70
2023-02-16T20:56:33.077Z,12.40
2023-02-16T20:59:01.385Z,12.48
2023-02-16T21:01:33.911Z,14.00
2023-02-16T21:04:01.326Z,14.38
2023-02-16T21:06:29.301Z,14.32
2023-02-16T21:08:56.962Z,14.45
2023-02-16T21:11:25.431Z,15.48
2023-02-16T21:13:53.360Z,13.55
2023-02-16T21:16:20.839Z,13.63
2023-02-16T21:18:48.207Z,14.60
2023-02-16T21:21:15.707Z,14.13
2023-02-16T21:23:45.402Z,13.45
2023-02-16T21:26:13.374Z,14.52
2023-02-16T21:28:41.121Z,13.73
2023-02-16T21:31:12.469Z,13.30
2023-02-16T21:33:40.602Z,13.52
2023-02-16T21:36:11.907Z,14.73
2023-02-16T21:38:40.323Z,14.40
2023-02-16T21:41:26.189Z,14.93
2023-02-16T21:44:02.158Z,13.32
2023-02-16T21:46:35.920Z,14.80
2023-02-16T21:49:07.574Z,14.52
2023-02-16T21:51:37.291Z,14.82
2023-02-16T21:54:09.531Z,14.38
2023-02-16T21:56:45.726Z,14.18
2023-02-16T21:59:15.485Z,14.20
2023-02-16T22:01:50.807Z,14.27
2023-02-16T22:04:22.614Z,14.15
2023-02-16T22:06:51.153Z,13.98
2023-02-16T22:09:21.778Z,14.82
2023-02-16T22:11:50.196Z,13.93
2023-02-16T22:14:18.024Z,14.10
2023-02-16T22:16:47.210Z,13.65
2023-02-16T22:19:16.595Z,14.35
2023-02-16T22:21:45.435Z,13.07
2023-02-16T22:24:14.836Z,13.60
2023-02-16T22:26:42.582Z,15.02
2023-02-16T22:29:10.857Z,14.48
2023-02-16T22:31:39.428Z,13.15
2023-02-16T22:34:11.518Z,13.70
2023-02-16T22:36:40.065Z,13.00
2023-02-16T22:39:07.746Z,14.75
2023-02-16T22:41:35.751Z,13.90
2023-02-16T22:44:03.277Z,13.40
2023-02-16T22:46:30.563Z,12.57
2023-02-16T22:48:59.273Z,13.48
2023-02-16T22:51:29.147Z,13.35
2023-02-16T22:53:59.041Z,13.05
2023-02-16T22:56:26.901Z,12.23
2023-02-16T22:58:57.493Z,13.10
2023-02-16T23:01:26.979Z,12.35
2023-02-16T23:03:57.342Z,11.82
2023-02-16T23:06:31.089Z,11.93
2023-02-16T23:09:01.627Z,11.85
2023-02-16T23:11:29.684Z,12.40
2023-02-16T23:13:57.230Z,11.43
2023-02-16T23:16:26.006Z,11.38
2023-02-16T23:18:55.385Z,11.15
2023-02-16T23:21:28.379Z,11.55
2023-02-16T23:23:56.197Z,11.45
2023-02-16T23:26:25.637Z,11.35
2023-02-16T23:28:54.739Z,10.70
2023-02-16T23:31:23.130Z,11.05
2023-02-16T23:33:50.848Z,11.85
2023-02-16T23:36:18.463Z,9.85
2023-02-16T23:38:45.737Z,11.90
2023-02-16T23:41:14.618Z,11.43
2023-02-16T23:43:42.479Z,11.23
2023-02-16T23:46:11.374Z,10.45
2023-02-16T23:48:38.960Z,9.95
2023-02-16T23:51:06.619Z,10.60
2023-02-16T23:53:34.147Z,10.38
2023-02-16T23:56:08.128Z,10.30
2023-02-16T23:58:41.829Z,9.27
